Time;durP1;ratioP1;P1;durP2;ratioP2;P2;SDS_P1;SDS_P2;PMS_P1;PMS_P2;Temp;Humidity;BMP_temperature;BMP_pressure;BME280_temperature;BME280_humidity;BME280_pressure;Samples;Min_cycle;Max_cycle;Signal;HPM_P1;HPM_P2
2023/04/04 00:02:10;;;;;;;0.30;0.30;;;4.80;99.90;;;;;;5033714;28;20091;-59
2023/04/04 00:04:36;;;;;;;0.30;0.30;;;4.70;99.90;;;;;;5038753;28;20032;-57
2023/04/04 00:07:02;;;;;;;0.40;0.40;;;4.70;99.90;;;;;;5032610;28;20072;-56
2023/04/04 00:09:28;;;;;;;0.20;0.20;;;4.70;99.90;;;;;;5032248;28;20025;-61
2023/04/04 00:11:54;;;;;;;0.32;0.32;;;4.70;99.90;;;;;;5037220;28;20029;-61
2023/04/04 00:14:20;;;;;;;0.73;0.70;;;4.80;99.90;;;;;;5040154;28;20033;-55
2023/04/04 00:16:46;;;;;;;0.20;0.20;;;4.80;99.90;;;;;;5053788;28;20037;-65
2023/04/04 00:19:16;;;;;;;0.20;0.20;;;4.60;99.90;;;;;;5025881;28;20464;-57
2023/04/04 00:21:44;;;;;;;0.22;0.22;;;4.50;99.90;;;;;;5043480;28;20033;-67
2023/04/04 00:24:10;;;;;;;0.47;0.47;;;4.30;99.90;;;;;;5037224;28;20087;-64
2023/04/04 00:26:36;;;;;;;0.30;0.30;;;4.30;99.90;;;;;;5050159;28;20492;-58
2023/04/04 00:29:02;;;;;;;0.60;0.60;;;;;;;;;;5048878;28;20045;-57
2023/04/04 00:31:27;;;;;;;0.57;0.57;;;4.20;99.90;;;;;;5040269;28;20084;-63
2023/04/04 00:33:53;;;;;;;0.28;0.28;;;4.30;99.90;;;;;;5037505;28;20040;-63
2023/04/04 00:36:19;;;;;;;0.35;0.35;;;4.20;99.90;;;;;;5036810;28;20461;-59
2023/04/04 00:38:44;;;;;;;0.20;0.20;;;4.20;99.90;;;;;;5033663;28;20025;-62
2023/04/04 00:41:11;;;;;;;0.30;0.30;;;4.00;99.90;;;;;;5034341;28;20481;-63
2023/04/04 00:43:37;;;;;;;0.20;0.20;;;3.80;99.90;;;;;;5033005;28;20029;-53
2023/04/04 00:46:03;;;;;;;0.80;0.65;;;3.70;99.90;;;;;;5032672;28;20037;-63
2023/04/04 00:48:29;;;;;;;0.30;0.30;;;3.60;99.90;;;;;;5070236;28;20401;-62
2023/04/04 00:50:55;;;;;;;0.20;0.20;;;3.60;99.90;;;;;;5035286;28;20021;-62
2023/04/04 00:53:22;;;;;;;0.40;0.40;;;3.50;99.90;;;;;;5038452;28;20049;-60
2023/04/04 00:55:47;;;;;;;0.38;0.38;;;3.50;99.90;;;;;;5043743;28;20018;-57
2023/04/04 00:58:14;;;;;;;0.30;0.30;;;;;;;;;;5022453;28;20056;-55
2023/04/04 01:00:48;;;;;;;0.38;0.38;;;3.40;99.90;;;;;;5054804;28;20467;-63
2023/04/04 01:03:14;;;;;;;0.35;0.30;;;3.40;99.90;;;;;;5016306;28;20041;-57
2023/04/04 01:05:40;;;;;;;2.20;1.20;;;;;;;;;;5044431;28;20052;-60
2023/04/04 01:08:06;;;;;;;0.35;0.35;;;3.20;99.90;;;;;;5043088;28;20388;-60
2023/04/04 01:10:33;;;;;;;0.20;0.20;;;3.00;99.90;;;;;;5039975;28;20096;-67
2023/04/04 01:12:59;;;;;;;0.30;0.30;;;2.90;99.90;;;;;;5036364;28;20076;-51
2023/04/04 01:15:25;;;;;;;1.23;1.20;;;2.80;99.90;;;;;;5037997;28;20055;-56
2023/04/04 01:17:54;;;;;;;0.40;0.40;;;2.70;99.90;;;;;;5037991;28;20098;-56
2023/04/04 01:20:25;;;;;;;0.60;0.60;;;2.70;99.90;;;;;;5028479;28;20038;-56
2023/04/04 01:22:53;;;;;;;0.30;0.30;;;2.90;99.90;;;;;;5030771;28;20587;-55
2023/04/04 01:25:29;;;;;;;0.30;0.30;;;2.70;99.90;;;;;;5036654;28;20075;-56
2023/04/04 01:27:59;;;;;;;0.32;0.32;;;2.70;99.90;;;;;;5037667;28;20400;-52
2023/04/04 01:30:29;;;;;;;1.10;0.70;;;2.60;99.90;;;;;;5036246;28;20052;-59
2023/04/04 01:33:23;;;;;;;0.40;0.40;;;2.70;99.90;;;;;;5044742;28;20037;-51
2023/04/04 01:36:09;;;;;;;0.50;0.50;;;2.60;99.90;;;;;;5030417;28;20032;-62
2023/04/04 01:38:43;;;;;;;0.30;0.30;;;2.50;99.90;;;;;;5031516;28;20034;-57
2023/04/04 01:41:11;;;;;;;0.40;0.40;;;2.60;99.90;;;;;;5042857;28;20068;-61
2023/04/04 01:43:37;;;;;;;1.13;1.10;;;2.60;99.90;;;;;;5041563;28;20040;-63
2023/04/04 01:46:03;;;;;;;0.43;0.43;;;2.50;99.90;;;;;;5040950;28;20049;-63
2023/04/04 01:48:29;;;;;;;0.45;0.45;;;2.50;99.90;;;;;;5025306;28;20057;-55
2023/04/04 01:50:55;;;;;;;0.50;0.50;;;2.30;99.90;;;;;;5037544;28;20033;-56
2023/04/04 01:53:21;;;;;;;0.50;0.50;;;2.30;99.90;;;;;;5037131;28;20488;-61
2023/04/04 01:55:47;;;;;;;0.20;0.20;;;2.30;99.90;;;;;;5030740;28;20038;-59
2023/04/04 01:58:13;;;;;;;0.30;0.30;;;2.20;99.90;;;;;;5030728;28;20025;-65
2023/04/04 02:00:41;;;;;;;0.30;0.30;;;2.30;99.90;;;;;;5036589;28;20490;-59
2023/04/04 02:03:08;;;;;;;0.40;0.40;;;2.40;99.90;;;;;;5041137;28;20025;-59
2023/04/04 02:05:33;;;;;;;0.75;0.75;;;2.40;99.90;;;;;;5033980;28;20501;-52
2023/04/04 02:07:59;;;;;;;0.30;0.30;;;2.40;99.90;;;;;;5037158;28;20033;-57
2023/04/04 02:10:25;;;;;;;0.65;0.50;;;2.40;99.90;;;;;;5030497;28;20033;-48
2023/04/04 02:12:54;;;;;;;0.30;0.30;;;2.30;99.90;;;;;;5042275;28;20499;-60
2023/04/04 02:15:19;;;;;;;0.30;0.30;;;2.30;99.90;;;;;;5027867;28;20038;-57
2023/04/04 02:17:47;;;;;;;0.30;0.30;;;2.20;99.90;;;;;;5038487;28;20097;-54
2023/04/04 02:20:13;;;;;;;2.55;0.88;;;2.10;99.90;;;;;;5036720;28;20033;-57
2023/04/04 02:22:39;;;;;;;0.50;0.50;;;2.30;99.90;;;;;;5047081;28;20056;-64
2023/04/04 02:25:05;;;;;;;0.30;0.30;;;2.10;99.90;;;;;;5039044;28;20067;-51
2023/04/04 02:27:31;;;;;;;0.30;0.30;;;2.10;99.90;;;;;;5043522;28;20132;-65
2023/04/04 02:29:57;;;;;;;0.35;0.30;;;2.20;99.90;;;;;;5033292;28;20172;-62
2023/04/04 02:32:23;;;;;;;0.60;0.60;;;2.10;99.90;;;;;;5032700;28;20130;-59
2023/04/04 02:34:49;;;;;;;1.17;1.08;;;2.00;99.90;;;;;;5026627;28;20482;-57
2023/04/04 02:37:16;;;;;;;0.30;0.30;;;2.00;99.90;;;;;;5035281;28;20033;-60
2023/04/04 02:39:42;;;;;;;0.30;0.30;;;2.10;99.90;;;;;;5032733;28;20033;-57
2023/04/04 02:42:07;;;;;;;0.30;0.30;;;2.20;99.90;;;;;;5041210;28;20029;-52
2023/04/04 02:44:33;;;;;;;0.43;0.43;;;2.30;99.90;;;;;;5039417;28;20044;-58
2023/04/04 02:47:05;;;;;;;0.30;0.30;;;2.40;99.90;;;;;;5030463;28;20040;-61
2023/04/04 02:49:34;;;;;;;0.30;0.30;;;2.60;99.90;;;;;;5038037;28;20036;-63
2023/04/04 02:52:00;;;;;;;0.75;0.68;;;2.40;99.90;;;;;;5048193;28;20041;-58
2023/04/04 02:54:26;;;;;;;0.40;0.40;;;2.60;99.90;;;;;;5030808;28;20041;-63
2023/04/04 02:56:51;;;;;;;0.40;0.40;;;2.70;99.90;;;;;;5038279;28;20389;-52
2023/04/04 02:59:18;;;;;;;0.40;0.40;;;2.50;99.90;;;;;;5034865;28;20060;-65
2023/04/04 03:01:46;;;;;;;0.38;0.38;;;2.70;99.90;;;;;;5038042;28;20041;-57
2023/04/04 03:04:12;;;;;;;0.43;0.43;;;2.80;99.90;;;;;;5026505;28;20079;-60
2023/04/04 03:06:40;;;;;;;0.47;0.47;;;2.70;99.90;;;;;;5032788;28;20128;-60
2023/04/04 03:09:06;;;;;;;0.20;0.20;;;2.80;99.90;;;;;;5040381;28;20036;-58
2023/04/04 03:11:32;;;;;;;0.25;0.25;;;2.80;99.90;;;;;;5036550;28;20501;-61
2023/04/04 03:13:57;;;;;;;0.88;0.75;;;2.80;99.90;;;;;;5045280;28;20072;-62
2023/04/04 03:16:24;;;;;;;0.77;0.70;;;2.90;99.90;;;;;;5036493;28;20041;-51
2023/04/04 03:18:50;;;;;;;0.20;0.20;;;2.90;99.90;;;;;;5029935;28;20117;-57
2023/04/04 03:21:16;;;;;;;0.68;0.68;;;2.80;99.90;;;;;;5034393;28;20108;-52
2023/04/04 03:23:42;;;;;;;0.30;0.30;;;;;;;;;;5045385;28;20099;-57
2023/04/04 03:26:08;;;;;;;0.32;0.32;;;2.70;99.90;;;;;;5025993;28;20044;-65
2023/04/04 03:28:34;;;;;;;0.30;0.30;;;2.90;99.90;;;;;;5033706;28;20490;-54
2023/04/04 03:31:04;;;;;;;0.22;0.22;;;2.70;99.90;;;;;;5037597;28;20037;-53
2023/04/04 03:33:30;;;;;;;0.65;0.65;;;;;;;;;;5034657;28;20029;-60
2023/04/04 03:35:56;;;;;;;0.60;0.60;;;;;;;;;;5033427;28;20032;-57
2023/04/04 03:38:22;;;;;;;0.57;0.52;;;;;;;;;;5032322;28;20025;-50
2023/04/04 03:40:48;;;;;;;0.30;0.30;;;;;;;;;;5043764;28;20040;-65
2023/04/04 03:43:14;;;;;;;0.55;0.55;;;2.60;99.90;;;;;;5039113;28;20158;-54
2023/04/04 03:45:48;;;;;;;0.30;0.30;;;2.80;99.90;;;;;;5034387;28;20084;-60
2023/04/04 03:48:13;;;;;;;0.35;0.30;;;2.70;99.90;;;;;;5034339;28;20188;-52
2023/04/04 03:50:39;;;;;;;0.70;0.70;;;;;;;;;;5031431;28;20108;-59
2023/04/04 03:53:06;;;;;;;1.17;0.70;;;;;;;;;;5042181;28;20033;-61
2023/04/04 03:55:33;;;;;;;0.55;0.55;;;2.20;99.90;;;;;;5038227;28;20035;-55
2023/04/04 03:57:58;;;;;;;0.30;0.30;;;1.90;99.90;;;;;;5033869;28;20041;-68
2023/04/04 04:00:25;;;;;;;0.63;0.63;;;;;;;;;;5038565;28;20045;-62
2023/04/04 04:02:50;;;;;;;0.60;0.60;;;2.40;99.90;;;;;;5043366;28;20060;-57
2023/04/04 04:05:16;;;;;;;0.63;0.63;;;2.50;99.90;;;;;;5050928;28;20092;-56
2023/04/04 04:07:43;;;;;;;0.20;0.20;;;2.80;99.90;;;;;;5036407;28;20026;-62
2023/04/04 04:10:09;;;;;;;0.50;0.50;;;;;;;;;;5030451;28;20045;-58
2023/04/04 04:12:36;;;;;;;1.27;1.17;;;;;;;;;;5036368;28;20065;-58
2023/04/04 04:15:04;;;;;;;0.22;0.22;;;2.40;99.90;;;;;;5046680;28;20040;-57
2023/04/04 04:17:30;;;;;;;0.60;0.60;;;;;;;;;;5030252;28;20478;-66
2023/04/04 04:19:56;;;;;;;0.60;0.60;;;2.00;99.90;;;;;;5032290;28;20025;-58
2023/04/04 04:22:22;;;;;;;0.38;0.38;;;2.70;99.90;;;;;;5057642;28;20049;-55
2023/04/04 04:24:47;;;;;;;0.32;0.32;;;2.30;99.90;;;;;;5035969;28;20073;-56
2023/04/04 04:27:13;;;;;;;0.68;0.68;;;;;;;;;;5034779;28;20029;-53
2023/04/04 04:29:39;;;;;;;0.40;0.40;;;2.10;99.90;;;;;;5033116;28;20033;-58
2023/04/04 04:32:05;;;;;;;0.30;0.30;;;2.40;99.90;;;;;;5032800;28;20057;-57
2023/04/04 04:34:31;;;;;;;0.30;0.30;;;;;;;;;;5033677;28;20045;-55
2023/04/04 04:36:57;;;;;;;0.52;0.45;;;;;;;;;;5033975;28;20033;-56
2023/04/04 04:39:23;;;;;;;0.30;0.30;;;;;;;;;;5040084;28;20034;-56
2023/04/04 04:41:49;;;;;;;0.30;0.30;;;2.10;99.90;;;;;;5037370;28;20195;-60
2023/04/04 04:44:15;;;;;;;0.50;0.50;;;2.20;99.90;;;;;;5041026;28;20120;-56
2023/04/04 04:46:41;;;;;;;0.30;0.30;;;;;;;;;;5038248;28;20030;-47
2023/04/04 04:49:07;;;;;;;1.13;1.02;;;2.20;99.90;;;;;;5044396;28;20045;-50
2023/04/04 04:51:33;;;;;;;0.40;0.40;;;2.20;99.90;;;;;;5069181;28;20041;-51
2023/04/04 04:53:58;;;;;;;1.17;1.13;;;2.20;99.90;;;;;;5028439;28;20028;-50
2023/04/04 04:56:24;;;;;;;0.52;0.52;;;1.80;99.90;;;;;;5036512;28;20488;-50
2023/04/04 04:58:50;;;;;;;1.05;1.05;;;;;;;;;;5049883;28;20033;-50
2023/04/04 05:01:16;;;;;;;0.47;0.47;;;2.20;99.90;;;;;;5060848;28;20095;-52
2023/04/04 05:03:42;;;;;;;0.35;0.35;;;;;;;;;;5041882;28;20416;-51
2023/04/04 05:06:08;;;;;;;3.65;0.73;;;1.70;99.90;;;;;;5042285;28;20052;-53
2023/04/04 05:08:34;;;;;;;1.15;0.70;;;;;;;;;;5038831;28;20037;-49
2023/04/04 05:11:00;;;;;;;1.00;1.00;;;;;;;;;;5042386;28;20532;-47
2023/04/04 05:13:26;;;;;;;0.45;0.45;;;;;;;;;;5049386;28;20081;-48
2023/04/04 05:15:52;;;;;;;0.50;0.50;;;;;;;;;;5024973;28;20040;-48
2023/04/04 05:18:18;;;;;;;0.30;0.30;;;;;;;;;;5051517;28;20038;-51
2023/04/04 05:20:55;;;;;;;0.85;0.75;;;1.30;99.90;;;;;;5036820;28;20129;-49
2023/04/04 05:23:21;;;;;;;0.30;0.30;;;2.00;99.90;;;;;;5031943;28;20052;-49
2023/04/04 05:25:52;;;;;;;0.70;0.70;;;2.00;99.90;;;;;;5033112;28;20077;-50
2023/04/04 05:28:19;;;;;;;0.40;0.40;;;2.20;99.90;;;;;;5039787;28;20119;-50
2023/04/04 05:30:45;;;;;;;0.52;0.52;;;2.10;99.90;;;;;;5038568;28;20565;-50
2023/04/04 05:33:12;;;;;;;0.35;0.35;;;;;;;;;;5043190;28;20029;-47
2023/04/04 05:35:38;;;;;;;0.35;0.35;;;;;;;;;;5036002;28;20025;-54
2023/04/04 05:38:03;;;;;;;0.60;0.60;;;2.50;99.90;;;;;;5036244;28;20032;-53
2023/04/04 05:40:29;;;;;;;0.50;0.50;;;2.00;99.90;;;;;;5037151;28;20029;-52
2023/04/04 05:42:55;;;;;;;0.70;0.70;;;2.10;99.90;;;;;;5037019;28;20075;-50
2023/04/04 05:45:21;;;;;;;0.65;0.65;;;2.60;99.90;;;;;;5043627;28;20116;-51
2023/04/04 05:47:47;;;;;;;0.50;0.50;;;;;;;;;;5035972;28;20604;-50
2023/04/04 05:50:13;;;;;;;0.60;0.60;;;2.30;99.90;;;;;;5035707;28;20025;-52
2023/04/04 05:52:39;;;;;;;0.57;0.57;;;1.80;99.90;;;;;;5030889;28;20064;-51
2023/04/04 05:55:05;;;;;;;0.57;0.57;;;1.60;99.90;;;;;;5036396;28;20036;-52
2023/04/04 05:57:31;;;;;;;0.50;0.50;;;;;;;;;;5024609;28;20489;-49
2023/04/04 05:59:57;;;;;;;0.32;0.32;;;;;;;;;;5038034;28;20029;-51
2023/04/04 06:02:24;;;;;;;0.30;0.30;;;;;;;;;;5047884;28;20524;-49
2023/04/04 06:04:50;;;;;;;0.30;0.30;;;;;;;;;;5037175;28;20087;-47
2023/04/04 06:07:16;;;;;;;0.50;0.50;;;;;;;;;;5038392;28;20049;-52
2023/04/04 06:09:42;;;;;;;0.45;0.45;;;2.30;99.90;;;;;;5038484;28;20486;-48
2023/04/04 06:12:08;;;;;;;0.85;0.85;;;2.30;99.90;;;;;;5018270;28;20445;-50
2023/04/04 06:14:36;;;;;;;0.73;0.73;;;2.30;99.90;;;;;;5021381;28;20076;-51
2023/04/04 06:17:03;;;;;;;0.75;0.75;;;2.30;99.90;;;;;;5036017;28;20032;-50
2023/04/04 06:19:29;;;;;;;0.50;0.50;;;;;;;;;;5033593;28;20107;-48
2023/04/04 06:21:55;;;;;;;0.90;0.90;;;2.10;99.90;;;;;;5044731;28;20021;-47
2023/04/04 06:24:21;;;;;;;0.50;0.50;;;;;;;;;;5034832;28;20542;-50
2023/04/04 06:26:50;;;;;;;0.38;0.38;;;2.10;99.90;;;;;;5033126;28;20073;-53
2023/04/04 06:29:19;;;;;;;1.15;1.05;;;2.40;99.90;;;;;;5043785;28;20076;-52
2023/04/04 06:31:45;;;;;;;2.00;0.63;;;2.30;99.90;;;;;;5042969;28;20037;-48
2023/04/04 06:34:11;;;;;;;0.47;0.40;;;2.00;99.90;;;;;;5035283;28;20362;-50
2023/04/04 06:36:36;;;;;;;0.57;0.57;;;2.10;99.90;;;;;;5037260;28;20021;-50
2023/04/04 06:39:02;;;;;;;0.45;0.45;;;2.10;99.90;;;;;;5040058;28;20026;-48
2023/04/04 06:41:28;;;;;;;0.30;0.30;;;1.90;99.90;;;;;;5014605;28;20038;-52
2023/04/04 06:43:53;;;;;;;0.85;0.80;;;2.10;99.90;;;;;;5041913;28;20025;-52
2023/04/04 06:46:19;;;;;;;0.52;0.52;;;2.00;99.90;;;;;;5036212;28;20063;-53
2023/04/04 06:48:45;;;;;;;0.43;0.43;;;2.00;99.90;;;;;;5050311;28;20099;-52
2023/04/04 06:51:11;;;;;;;0.38;0.38;;;2.00;99.90;;;;;;5033816;28;20042;-52
2023/04/04 06:53:38;;;;;;;0.63;0.63;;;;;;;;;;5032046;28;20550;-52
2023/04/04 06:56:04;;;;;;;0.80;0.57;;;;;;;;;;5039454;28;20040;-52
2023/04/04 06:58:30;;;;;;;0.73;0.73;;;2.10;99.90;;;;;;5071541;28;20038;-51
2023/04/04 07:00:58;;;;;;;0.40;0.40;;;2.10;99.90;;;;;;5020180;28;20046;-52
2023/04/04 07:03:25;;;;;;;0.47;0.47;;;2.10;99.90;;;;;;5035802;28;20048;-50
2023/04/04 07:05:51;;;;;;;0.57;0.57;;;;;;;;;;5031831;28;20131;-49
2023/04/04 07:08:17;;;;;;;0.70;0.70;;;;;;;;;;5041905;28;20033;-49
2023/04/04 07:10:43;;;;;;;1.17;0.52;;;2.40;99.90;;;;;;5039457;28;20043;-52
2023/04/04 07:13:09;;;;;;;0.57;0.57;;;2.30;99.90;;;;;;5042864;28;20034;-53
2023/04/04 07:15:35;;;;;;;0.98;0.93;;;2.60;99.90;;;;;;5030286;28;20036;-52
2023/04/04 07:18:01;;;;;;;0.45;0.45;;;;;;;;;;5044368;28;20025;-50
2023/04/04 07:20:27;;;;;;;0.50;0.50;;;2.70;99.90;;;;;;5034640;28;20026;-50
2023/04/04 07:22:53;;;;;;;0.40;0.40;;;2.20;99.90;;;;;;5035262;28;20416;-51
2023/04/04 07:25:19;;;;;;;1.05;0.93;;;2.30;99.90;;;;;;5031533;28;20025;-53
2023/04/04 07:27:45;;;;;;;0.60;0.60;;;;;;;;;;5034971;28;20057;-54
2023/04/04 07:30:12;;;;;;;0.90;0.90;;;2.30;99.90;;;;;;5037596;28;20024;-51
2023/04/04 07:32:38;;;;;;;0.80;0.80;;;2.60;99.90;;;;;;5038629;28;20064;-48
2023/04/04 07:35:05;;;;;;;0.47;0.47;;;2.50;99.90;;;;;;5042482;28;20056;-52
2023/04/04 07:37:32;;;;;;;0.50;0.50;;;2.30;99.90;;;;;;5037237;28;20033;-53
2023/04/04 07:39:58;;;;;;;1.55;1.35;;;2.40;99.90;;;;;;5034923;28;20036;-54
2023/04/04 07:42:24;;;;;;;0.30;0.30;;;2.60;99.90;;;;;;5065734;28;20045;-53
2023/04/04 07:44:50;;;;;;;0.50;0.50;;;2.70;99.90;;;;;;5043144;28;20542;-50
2023/04/04 07:47:17;;;;;;;1.17;1.15;;;2.60;99.90;;;;;;5039147;28;20052;-53
2023/04/04 07:49:43;;;;;;;0.35;0.35;;;2.50;99.90;;;;;;5051001;28;20429;-53
2023/04/04 07:52:09;;;;;;;0.30;0.30;;;2.40;99.90;;;;;;5038573;28;20524;-54
2023/04/04 07:54:35;;;;;;;0.30;0.30;;;2.50;99.90;;;;;;5036286;28;20117;-52
2023/04/04 07:57:04;;;;;;;1.67;1.20;;;2.40;99.90;;;;;;5034853;28;20052;-49
2023/04/04 07:59:33;;;;;;;0.52;0.52;;;2.40;99.90;;;;;;5041268;28;20130;-51
2023/04/04 08:01:58;;;;;;;1.10;1.10;;;2.30;99.90;;;;;;5027702;28;20029;-51
2023/04/04 08:04:24;;;;;;;1.58;1.10;;;2.50;99.90;;;;;;5047491;28;20045;-50
2023/04/04 08:06:50;;;;;;;0.55;0.55;;;2.40;99.90;;;;;;5033999;28;20099;-51
2023/04/04 08:09:16;;;;;;;0.93;0.93;;;2.50;99.90;;;;;;5036324;28;20029;-49
2023/04/04 08:11:42;;;;;;;0.50;0.50;;;2.40;99.90;;;;;;5037036;28;20103;-55
2023/04/04 08:14:10;;;;;;;2.80;1.27;;;2.30;99.90;;;;;;5033951;28;20171;-53
2023/04/04 08:16:37;;;;;;;0.55;0.55;;;2.20;99.90;;;;;;5034858;28;20029;-49
2023/04/04 08:19:03;;;;;;;0.50;0.50;;;2.40;99.90;;;;;;5032212;28;20013;-52
2023/04/04 08:21:29;;;;;;;0.73;0.73;;;2.20;99.90;;;;;;5031078;28;20026;-48
2023/04/04 08:23:55;;;;;;;1.10;1.08;;;2.20;99.90;;;;;;5040467;28;20041;-49
2023/04/04 08:26:21;;;;;;;0.55;0.55;;;2.10;99.90;;;;;;5021741;28;20092;-52
2023/04/04 08:28:47;;;;;;;0.40;0.40;;;1.90;99.90;;;;;;5036710;28;20100;-50
2023/04/04 08:31:13;;;;;;;0.70;0.70;;;2.20;99.90;;;;;;5037512;28;20032;-48
2023/04/04 08:33:39;;;;;;;0.82;0.77;;;2.40;99.90;;;;;;5027405;28;20026;-53
2023/04/04 08:36:04;;;;;;;0.90;0.90;;;2.40;99.90;;;;;;5036153;28;20025;-50
2023/04/04 08:38:30;;;;;;;0.80;0.80;;;2.50;99.90;;;;;;5043460;28;20083;-49
2023/04/04 08:40:57;;;;;;;2.00;0.85;;;2.50;99.90;;;;;;5035689;28;20029;-49
2023/04/04 08:43:23;;;;;;;0.80;0.80;;;2.50;99.90;;;;;;5036057;28;20037;-53
2023/04/04 08:45:52;;;;;;;0.85;0.85;;;2.40;99.90;;;;;;5035841;28;20038;-53
2023/04/04 08:48:20;;;;;;;1.13;1.13;;;2.40;99.90;;;;;;5042654;28;20024;-54
2023/04/04 08:50:47;;;;;;;1.55;1.25;;;2.40;99.90;;;;;;5034839;28;20029;-48
2023/04/04 08:53:14;;;;;;;0.73;0.73;;;2.60;99.90;;;;;;5044568;28;20103;-50
2023/04/04 08:55:41;;;;;;;0.77;0.77;;;2.50;99.90;;;;;;5034603;28;20049;-52
2023/04/04 08:58:07;;;;;;;0.88;0.88;;;2.70;99.90;;;;;;5043081;28;20021;-51
2023/04/04 09:00:33;;;;;;;0.90;0.90;;;2.50;99.90;;;;;;5039663;28;20576;-48
2023/04/04 09:03:21;;;;;;;0.57;0.57;;;2.40;99.90;;;;;;5042010;28;20105;-50
2023/04/04 09:05:48;;;;;;;0.70;0.70;;;2.60;99.90;;;;;;5043084;28;20072;-52
2023/04/04 09:08:15;;;;;;;0.63;0.63;;;2.80;99.90;;;;;;5068365;28;20482;-50
2023/04/04 09:10:43;;;;;;;0.70;0.60;;;2.70;99.90;;;;;;5053659;28;20101;-50
2023/04/04 09:13:09;;;;;;;1.02;1.02;;;2.60;99.90;;;;;;5025992;28;20056;-53
2023/04/04 09:15:37;;;;;;;0.70;0.65;;;2.70;99.90;;;;;;5039093;28;20113;-54
2023/04/04 09:18:03;;;;;;;0.95;0.95;;;2.80;99.90;;;;;;5041483;28;20078;-52
2023/04/04 09:20:37;;;;;;;0.80;0.80;;;2.80;99.90;;;;;;5036277;28;20025;-52
2023/04/04 09:23:14;;;;;;;0.40;0.40;;;2.80;99.90;;;;;;5008677;28;20132;-48
2023/04/04 09:25:51;;;;;;;1.00;1.00;;;2.70;99.90;;;;;;5035974;28;20087;-52
2023/04/04 09:28:17;;;;;;;0.70;0.70;;;2.80;99.90;;;;;;5037256;28;20079;-49
2023/04/04 09:30:44;;;;;;;0.40;0.40;;;3.00;99.90;;;;;;5034494;28;20076;-49
2023/04/04 09:33:11;;;;;;;0.80;0.80;;;3.10;99.90;;;;;;5034748;28;20072;-53
2023/04/04 09:35:40;;;;;;;0.77;0.77;;;3.30;99.90;;;;;;5040164;28;20017;-56
2023/04/04 09:38:06;;;;;;;0.70;0.68;;;3.40;99.90;;;;;;5031641;28;20144;-49
2023/04/04 09:40:35;;;;;;;1.00;1.00;;;3.50;99.90;;;;;;5039907;28;20029;-51
2023/04/04 09:43:01;;;;;;;1.48;1.38;;;3.40;99.90;;;;;;5026928;28;20021;-51
2023/04/04 09:45:30;;;;;;;0.30;0.30;;;3.20;99.90;;;;;;5036441;28;20049;-50
2023/04/04 09:47:56;;;;;;;1.15;1.05;;;3.00;99.90;;;;;;5039232;28;20078;-55
2023/04/04 09:50:24;;;;;;;1.08;1.08;;;3.30;99.90;;;;;;5045376;28;20034;-52
2023/04/04 09:52:51;;;;;;;0.50;0.50;;;3.30;99.90;;;;;;5043929;28;20063;-53
2023/04/04 09:55:17;;;;;;;0.98;0.70;;;3.50;99.90;;;;;;5041565;28;20037;-55
2023/04/04 09:57:45;;;;;;;0.57;0.57;;;3.50;99.90;;;;;;5075785;28;20072;-50
2023/04/04 10:00:17;;;;;;;0.80;0.80;;;3.40;99.90;;;;;;5042615;28;20033;-49
2023/04/04 10:02:46;;;;;;;;;;;3.50;99.90;;;;;;5034310;28;20080;-50
2023/04/04 10:05:13;;;;;;;1.48;0.90;;;3.50;99.90;;;;;;5031978;28;19947;-49
2023/04/04 10:07:39;;;;;;;3.92;1.05;;;3.60;99.90;;;;;;5038373;28;20515;-51
2023/04/04 10:10:06;;;;;;;1.05;1.00;;;3.30;99.90;;;;;;5047250;28;20029;-48
2023/04/04 10:12:34;;;;;;;1.40;1.30;;;3.50;99.90;;;;;;5053086;28;20033;-56
2023/04/04 10:15:01;;;;;;;0.85;0.85;;;3.70;99.90;;;;;;5029644;28;20123;-50
2023/04/04 10:17:38;;;;;;;0.75;0.75;;;3.60;99.90;;;;;;5036226;28;20021;-48
2023/04/04 10:20:05;;;;;;;0.68;0.68;;;3.50;99.90;;;;;;5030786;28;20075;-49
2023/04/04 10:22:41;;;;;;;0.43;0.43;;;3.50;99.90;;;;;;5039932;28;20021;-51
2023/04/04 10:25:08;;;;;;;0.52;0.52;;;3.60;99.90;;;;;;5034600;28;20501;-54
2023/04/04 10:27:36;;;;;;;0.60;0.60;;;3.50;99.90;;;;;;5031544;28;20124;-54
2023/04/04 10:30:02;;;;;;;0.57;0.57;;;3.60;99.90;;;;;;5042685;28;20484;-51
2023/04/04 10:32:56;;;;;;;1.67;1.42;;;3.70;99.90;;;;;;5038635;28;20033;-49
2023/04/04 10:35:24;;;;;;;0.98;0.95;;;3.90;99.90;;;;;;5043145;28;20484;-51
2023/04/04 10:37:57;;;;;;;0.60;0.60;;;3.90;99.90;;;;;;5064213;28;20068;-54
2023/04/04 10:40:26;;;;;;;1.30;1.20;;;4.00;99.90;;;;;;5040598;28;20033;-51
2023/04/04 10:42:54;;;;;;;0.60;0.60;;;4.20;99.90;;;;;;5040981;28;20087;-51
2023/04/04 10:45:20;;;;;;;2.75;0.93;;;4.00;99.90;;;;;;5041792;28;20021;-53
2023/04/04 10:47:47;;;;;;;0.65;0.65;;;4.00;99.90;;;;;;5036177;28;20045;-52
2023/04/04 10:50:14;;;;;;;0.73;0.73;;;3.80;99.90;;;;;;5031640;28;20382;-50
2023/04/04 10:52:42;;;;;;;0.85;0.52;;;3.80;99.90;;;;;;5045313;28;20441;-55
2023/04/04 10:55:12;;;;;;;0.85;0.70;;;4.00;99.90;;;;;;5038939;28;20033;-53
2023/04/04 10:57:51;;;;;;;0.80;0.80;;;3.90;99.90;;;;;;5040722;28;20033;-52
2023/04/04 11:00:19;;;;;;;0.98;0.90;;;3.90;99.90;;;;;;5038498;28;20033;-51
2023/04/04 11:02:50;;;;;;;1.08;0.98;;;3.90;99.90;;;;;;5034273;28;20040;-51
2023/04/04 11:05:22;;;;;;;1.30;1.20;;;4.10;99.90;;;;;;5035925;28;20040;-52
2023/04/04 11:08:01;;;;;;;3.03;0.80;;;3.80;99.90;;;;;;5036562;28;20030;-51
2023/04/04 11:10:44;;;;;;;1.65;0.80;;;4.00;99.90;;;;;;5040869;28;20029;-50
2023/04/04 11:13:17;;;;;;;1.35;1.10;;;4.20;99.90;;;;;;5035786;28;20473;-51
2023/04/04 11:15:53;;;;;;;0.63;0.63;;;4.10;99.90;;;;;;5035411;28;20059;-50
2023/04/04 11:18:20;;;;;;;0.63;0.63;;;4.20;99.90;;;;;;5025587;28;20112;-52
2023/04/04 11:20:47;;;;;;;1.83;1.45;;;4.20;99.90;;;;;;5043913;28;20025;-55
2023/04/04 11:23:21;;;;;;;4.93;3.00;;;4.20;99.90;;;;;;5038291;28;20041;-54
2023/04/04 11:25:55;;;;;;;0.70;0.70;;;4.30;99.90;;;;;;5041657;28;20511;-52
2023/04/04 11:28:33;;;;;;;1.05;1.05;;;4.10;99.90;;;;;;5032538;28;20037;-50
2023/04/04 11:31:20;;;;;;;1.27;1.17;;;4.20;99.90;;;;;;5036000;28;20033;-49
2023/04/04 11:34:07;;;;;;;0.82;0.82;;;4.40;99.90;;;;;;5032454;28;20057;-51
2023/04/04 11:36:35;;;;;;;0.50;0.50;;;4.70;99.90;;;;;;5045308;28;20025;-49
2023/04/04 11:39:23;;;;;;;0.95;0.77;;;4.30;99.90;;;;;;5052258;28;20029;-54
2023/04/04 11:42:10;;;;;;;0.57;0.57;;;4.50;99.90;;;;;;5034978;28;20061;-51
2023/04/04 11:45:02;;;;;;;0.98;0.98;;;4.50;99.90;;;;;;5073158;28;20103;-51
2023/04/04 11:47:30;;;;;;;0.80;0.80;;;4.50;99.90;;;;;;5019400;28;20100;-52
2023/04/04 11:49:56;;;;;;;0.73;0.73;;;4.20;99.90;;;;;;5038967;28;20033;-52
2023/04/04 11:52:25;;;;;;;1.67;0.95;;;3.90;99.90;;;;;;5036846;28;20029;-53
2023/04/04 11:54:51;;;;;;;0.55;0.55;;;4.10;99.90;;;;;;5034422;28;20029;-52
2023/04/04 11:57:19;;;;;;;1.02;0.80;;;4.30;99.90;;;;;;5032163;28;20037;-49
2023/04/04 11:59:49;;;;;;;0.77;0.77;;;3.80;99.90;;;;;;5036454;28;20034;-49
2023/04/04 12:02:33;;;;;;;0.55;0.55;;;3.90;99.90;;;;;;5034277;28;20025;-52
2023/04/04 12:04:59;;;;;;;1.05;0.95;;;4.20;99.90;;;;;;5034864;28;20531;-53
2023/04/04 12:07:25;;;;;;;0.77;0.77;;;4.40;99.90;;;;;;5039330;28;20033;-49
2023/04/04 12:09:51;;;;;;;1.00;0.98;;;4.30;99.90;;;;;;5040767;28;20508;-52
2023/04/04 12:12:17;;;;;;;0.90;0.90;;;4.30;99.90;;;;;;5034944;28;20032;-51
2023/04/04 12:14:43;;;;;;;1.42;1.33;;;4.50;99.90;;;;;;5050286;28;20034;-51
2023/04/04 12:17:09;;;;;;;1.67;1.27;;;4.50;99.90;;;;;;5040711;28;20071;-50
2023/04/04 12:19:39;;;;;;;1.55;1.20;;;4.70;99.90;;;;;;5033438;28;20017;-50
2023/04/04 12:22:06;;;;;;;0.75;0.75;;;4.70;99.90;;;;;;5036734;28;20040;-50
2023/04/04 12:24:32;;;;;;;0.95;0.73;;;4.80;99.90;;;;;;5034307;28;20132;-50
2023/04/04 12:26:59;;;;;;;1.85;1.25;;;4.40;99.90;;;;;;5028732;28;20583;-51
2023/04/04 12:29:34;;;;;;;1.20;1.10;;;4.60;99.90;;;;;;5038872;28;20040;-52
2023/04/04 12:32:01;;;;;;;2.15;1.35;;;4.60;99.90;;;;;;5033260;28;20138;-51
2023/04/04 12:34:32;;;;;;;1.05;0.93;;;4.80;99.90;;;;;;5033159;28;20041;-51
2023/04/04 12:36:59;;;;;;;1.17;1.08;;;4.40;99.90;;;;;;5035999;28;20569;-50
2023/04/04 12:39:27;;;;;;;1.58;1.38;;;4.70;99.90;;;;;;5040730;28;20021;-51
2023/04/04 12:41:58;;;;;;;1.42;1.33;;;4.30;99.90;;;;;;5034208;28;20045;-50
2023/04/04 12:44:33;;;;;;;1.40;1.30;;;4.60;99.90;;;;;;5047123;28;20029;-52
2023/04/04 12:47:04;;;;;;;0.52;0.52;;;4.60;99.90;;;;;;5029043;28;20194;-49
2023/04/04 12:49:38;;;;;;;0.70;0.70;;;4.30;99.90;;;;;;5040925;28;20033;-52
2023/04/04 12:52:06;;;;;;;0.60;0.60;;;4.40;99.90;;;;;;5035508;28;20037;-51
2023/04/04 12:54:34;;;;;;;1.05;0.95;;;4.20;99.90;;;;;;5034869;28;20033;-50
2023/04/04 12:57:04;;;;;;;1.85;1.02;;;4.40;99.90;;;;;;5037081;28;20029;-50
2023/04/04 12:59:35;;;;;;;0.70;0.70;;;4.10;99.90;;;;;;5069983;28;20033;-53
2023/04/04 13:02:09;;;;;;;1.13;1.05;;;4.10;99.90;;;;;;5053714;28;20044;-51
2023/04/04 13:04:36;;;;;;;1.17;1.08;;;4.20;99.90;;;;;;5038746;28;20053;-49
2023/04/04 13:07:03;;;;;;;0.40;0.40;;;4.20;99.90;;;;;;5038618;28;20041;-50
2023/04/04 13:09:28;;;;;;;0.30;0.30;;;4.20;99.90;;;;;;5043017;28;20106;-49
2023/04/04 13:12:00;;;;;;;1.85;1.70;;;4.20;99.90;;;;;;5039677;28;20068;-52
2023/04/04 13:14:28;;;;;;;1.35;1.25;;;4.20;99.90;;;;;;5035266;28;20037;-49